Buoy 41997

sailwx.info

Track history (hours):
 
Tides and Currents Weather Stations Pressure Air Temp Water Temp Dewpoint Dewpoint Depression Visibility Wind Speed Wind Dir Waves Ship Positions

Drifting buoy 41997

Last reported at 2014-Dec-18 18:00 UTC. Time now 2014-Dec-18 19:33 UTC.
Position N 26°13' W 037°25'.

Water temperature 23.8 ° C

Date/timePositionNaut miles runAvg speedWind from/ knotsBaromVisibWave heightAir tempDewpointWater temp
2014-Dec-18 18:00N 26°13' W 037°25'0 0.0 23.8
2014-Dec-18 17:45N 26°13' W 037°25'1 0.7 23.8
2014-Dec-18 16:15N 26°12' W 037°25'0 0.0 23.8
2014-Dec-18 16:00N 26°12' W 037°25'0 0.0 23.8
2014-Dec-18 13:45N 26°12' W 037°25'0 0.0 23.8
2014-Dec-18 13:30N 26°12' W 037°25'0 0.0 23.8
2014-Dec-18 12:45N 26°12' W 037°25'0 0.4 23.8
2014-Dec-18 12:00N 26°12' W 037°25'0 0.0 23.8
2014-Dec-18 11:45N 26°12' W 037°25'0 0.1 23.8
2014-Dec-18 09:00N 26°12' W 037°25'0 1.0 23.8
2014-Dec-18 08:45N 26°12' W 037°25'0 0.5 23.8
2014-Dec-18 08:15N 26°12' W 037°25'0 0.0 23.8
2014-Dec-18 07:30N 26°12' W 037°25'0 0.0 23.8
2014-Dec-18 07:00N 26°12' W 037°25'1 1.1 23.8
2014-Dec-18 06:30N 26°12' W 037°25'1 0.7 23.8
2014-Dec-18 04:45N 26°12' W 037°27'0 0.0 23.8
2014-Dec-18 03:00N 26°12' W 037°27'0 0.0 23.8
2014-Dec-18 00:15N 26°12' W 037°27'0 0.0 23.8
2014-Dec-17 23:30N 26°12' W 037°27'0 0.0 23.8
2014-Dec-17 21:45N 26°12' W 037°27'0 0.0 23.8
2014-Dec-17 21:30N 26°12' W 037°27'2 2.0 23.8
2014-Dec-17 20:45N 26°11' W 037°28'0 0.0 23.8
2014-Dec-17 20:00N 26°11' W 037°28'0 0.0 23.8
2014-Dec-17 19:45N 26°11' W 037°28'0 0.6 23.8
2014-Dec-17 19:00N 26°11' W 037°28'0 0.0 23.8
2014-Dec-17 18:15N 26°11' W 037°28'0 1.6 23.8
2014-Dec-17 18:00N 26°11' W 037°29'0 0.0 23.8
2014-Dec-17 16:15N 26°11' W 037°29'1 0.8 23.9
2014-Dec-17 14:45N 26°10' W 037°30'0 0.0 23.9
2014-Dec-17 14:30N 26°10' W 037°30'0 0.0 23.9
2014-Dec-17 13:15N 26°10' W 037°30'0 0.3 23.9
2014-Dec-17 12:15N 26°10' W 037°30'0 0.0 23.9
2014-Dec-17 11:30N 26°10' W 037°30'0 0.0 23.9
2014-Dec-17 10:30N 26°10' W 037°30'0 0.2 23.9
2014-Dec-17 09:30N 26°10' W 037°30'0 0.7 23.9
2014-Dec-17 09:15N 26°10' W 037°30'0 0.2 23.8
2014-Dec-17 08:30N 26°10' W 037°30'0 0.0 23.8
2014-Dec-17 08:15N 26°10' W 037°30'0 0.0 23.8
2014-Dec-17 08:00N 26°10' W 037°30'0 0.0 23.8
2014-Dec-17 07:45N 26°10' W 037°30'2 1.7 23.8
2014-Dec-17 06:45N 26°10' W 037°32'0 0.0 23.8
2014-Dec-17 05:00N 26°10' W 037°32'0 0.0 23.8
2014-Dec-17 00:00N 26°10' W 037°32'0 0.0 23.9
2014-Dec-16 23:45N 26°10' W 037°32'1 1.4 23.9
2014-Dec-16 23:00N 26°10' W 037°33'0 0.0 23.9
2014-Dec-16 22:15N 26°10' W 037°33'0 0.0 23.9
2014-Dec-16 22:00N 26°10' W 037°33'0 0.0 23.9
2014-Dec-16 20:30N 26°10' W 037°33'1 0.3 23.9
2014-Dec-16 18:15N 26°09' W 037°34'3 0.2 23.9
2014-Dec-15 23:30N 26°07' W 037°36'0 0.0 23.9
2014-Dec-15 23:15N 26°07' W 037°36'1 0.7 23.9
2014-Dec-15 22:30N 26°07' W 037°37'1 0.4 23.9
2014-Dec-15 20:15N 26°06' W 037°37'0 0.0 23.9
2014-Dec-15 20:00N 26°06' W 037°37'0 0.0 23.9
2014-Dec-15 18:30N 26°06' W 037°37'0 0.0 23.9
2014-Dec-15 18:15N 26°06' W 037°37'1 0.4 23.9
2014-Dec-15 16:45N 26°06' W 037°38'0 0.0 23.9
2014-Dec-15 16:30N 26°06' W 037°38'1 0.4 23.9
2014-Dec-15 15:00N 26°06' W 037°38'1 0.4 24.0
2014-Dec-15 12:15N 26°06' W 037°40'1 0.6 23.9
2014-Dec-15 11:15N 26°05' W 037°40'1 0.2 23.9
2014-Dec-15 08:45N 26°05' W 037°40'1 2.2 23.9
2014-Dec-15 08:30N 26°05' W 037°40'1 0.4 23.9
2014-Dec-15 07:15N 26°05' W 037°40'1 2.4 23.9
2014-Dec-15 07:00N 26°06' W 037°40'0 0.0 23.9
2014-Dec-15 05:15N 26°06' W 037°40'1 0.8 23.9
2014-Dec-15 03:45N 26°07' W 037°39'0 0.0 23.9
2014-Dec-15 03:30N 26°07' W 037°39'0 0.0 23.9
2014-Dec-15 00:30N 26°07' W 037°39'2 2.3 23.9
2014-Dec-14 23:45N 26°07' W 037°41'1 0.7 23.9
2014-Dec-14 23:00N 26°07' W 037°40'0 0.0 23.9
2014-Dec-14 22:45N 26°07' W 037°40'0 0.0 23.9
2014-Dec-14 21:30N 26°07' W 037°40'3 3.2 23.9
2014-Dec-14 20:30N 26°07' W 037°44'312.9 23.9
2014-Dec-14 20:15N 26°07' W 037°40'1 2.2 23.9
2014-Dec-14 20:00N 26°07' W 037°41'310.8 23.9
2014-Dec-14 19:45N 26°07' W 037°44'3 2.8 23.9
2014-Dec-14 18:45N 26°08' W 037°41'0 0.0 23.9
2014-Dec-14 18:30N 26°08' W 037°41'1 0.4 23.9
2014-Dec-14 17:00N 26°08' W 037°40'0 0.0 23.8
2014-Dec-14 16:45N 26°08' W 037°40'1 0.4 23.8
2014-Dec-14 15:15N 26°08' W 037°41'0 0.0 23.7
2014-Dec-14 15:00N 26°08' W 037°41'2 0.7 23.7
2014-Dec-14 12:30N 26°06' W 037°41'2 2.5 23.7
2014-Dec-14 11:45N 26°04' W 037°41'0 0.0 23.8
2014-Dec-14 11:30N 26°04' W 037°41'0 0.0 23.9
2014-Dec-14 09:15N 26°04' W 037°41'0 0.0 24.0
2014-Dec-14 09:00N 26°04' W 037°41'1 0.9 24.1
2014-Dec-14 07:30N 26°03' W 037°42'0 0.0 24.2
2014-Dec-14 07:15N 26°03' W 037°42'2 0.9 24.2
2014-Dec-14 05:30N 26°02' W 037°43'1 0.9 24.2
2014-Dec-14 04:00N 26°01' W 037°43'0 0.0 24.3
2014-Dec-14 03:45N 26°01' W 037°43'2 0.6 24.3
2014-Dec-14 01:00N 25°59' W 037°43'0 0.0 24.3
2014-Dec-14 00:00N 25°59' W 037°43'0 0.0 24.3
2014-Dec-13 23:15N 25°59' W 037°43'7 0.3 24.3
2014-Dec-12 22:45N 25°58' W 037°50'2 0.6 24.3
2014-Dec-12 19:00N 25°59' W 037°53'0 0.0 24.5
2014-Dec-12 17:45N 25°59' W 037°53'5 0.4 24.6
2014-Dec-12 04:15N 25°59' W 037°58'2 6.4 24.3
2014-Dec-12 04:00N 25°59' W 037°60'0 0.0 24.3
2014-Dec-12 00:00N 25°59' W 037°60'0 0.0 24.3
2014-Dec-11 23:45N 25°59' W 037°60'1 1.5 24.3
2014-Dec-11 23:15N 25°60' W 038°01'0 0.0 24.3
2014-Dec-11 23:00N 25°60' W 038°01'0 0.0 24.3
2014-Dec-11 22:15N 25°60' W 038°01'0 0.0 24.3
2014-Dec-11 21:30N 25°60' W 038°01'0 0.0 24.3
2014-Dec-11 21:15N 25°60' W 038°01'1 0.6 24.3
2014-Dec-11 19:45N 26°00' W 038°01'0 0.0 24.4
2014-Dec-11 19:15N 26°00' W 038°01'0 0.0 24.4
2014-Dec-11 19:00N 26°00' W 038°01'2 2.9 24.4
2014-Dec-11 18:15N 26°00' W 038°04'0 0.0 24.5
2014-Dec-11 17:30N 26°00' W 038°04'0 0.0 24.5
2014-Dec-11 15:45N 26°00' W 038°04'2 0.6 24.5
2014-Dec-11 12:45N 26°01' W 038°06'0 0.0 24.3
2014-Dec-11 12:30N 26°01' W 038°06'2 3.1 24.3
2014-Dec-11 12:00N 26°01' W 038°08'0 0.0 24.3
2014-Dec-11 11:45N 26°01' W 038°08'0 0.0 24.3
2014-Dec-11 11:00N 26°01' W 038°08'0 0.0 24.3
2014-Dec-11 09:00N 26°01' W 038°08'1 4.1 24.3
2014-Dec-11 08:45N 26°01' W 038°09'0 0.0 24.3
2014-Dec-11 08:00N 26°01' W 038°09'1 2.4 24.3
2014-Dec-11 07:45N 26°01' W 038°09'0 0.0 24.3
2014-Dec-11 07:30N 26°01' W 038°09'0 0.0 24.3
2014-Dec-11 07:00N 26°01' W 038°09'1 1.7 24.3
2014-Dec-11 06:15N 26°01' W 038°11'0 0.0 24.3
2014-Dec-11 06:00N 26°01' W 038°11'0 0.1 24.3
2014-Dec-11 04:30N 26°01' W 038°11'2 7.6 24.3
2014-Dec-11 04:15N 26°00' W 038°13'0 0.0 24.3
2014-Dec-11 00:15N 26°00' W 038°13'1 1.6 24.3
2014-Dec-10 23:30N 26°01' W 038°13'0 0.0 24.3
2014-Dec-10 22:30N 26°01' W 038°13'0 0.0 24.3
2014-Dec-10 22:00N 26°01' W 038°13'0 0.0 24.3
2014-Dec-10 21:45N 26°01' W 038°13'0 0.0 24.3
2014-Dec-10 20:15N 26°01' W 038°13'0 0.0 24.3
2014-Dec-10 19:30N 26°01' W 038°13'0 0.0 24.3
2014-Dec-10 19:15N 26°01' W 038°13'2 3.9 24.3
2014-Dec-10 18:45N 26°03' W 038°14'0 0.0 24.3
2014-Dec-10 17:45N 26°03' W 038°14'0 0.0 24.3
2014-Dec-10 16:00N 26°03' W 038°14'0 0.0 24.3
2014-Dec-10 15:45N 26°03' W 038°14'3 0.8 24.3
2014-Dec-10 12:15N 26°06' W 038°16'0 0.0 24.3
2014-Dec-10 11:30N 26°06' W 038°16'1 0.3 24.2
2014-Dec-10 09:00N 26°06' W 038°16'0 0.0 24.2
2014-Dec-10 08:00N 26°06' W 038°16'1 2.1 24.1
2014-Dec-10 07:45N 26°07' W 038°17'1 0.8 24.1
2014-Dec-10 06:30N 26°08' W 038°17'0 0.0 24.0
2014-Dec-10 04:45N 26°08' W 038°17'0 0.0 23.9
2014-Dec-10 04:30N 26°08' W 038°17'1 0.3 23.9
2014-Dec-10 00:00N 26°09' W 038°17'1 2.2 23.6
2014-Dec-09 23:45N 26°09' W 038°18'2 2.1 23.6
2014-Dec-09 23:00N 26°10' W 038°17'0 0.0 23.6
2014-Dec-09 20:45N 26°10' W 038°17'0 0.0 23.6
2014-Dec-09 19:30N 26°10' W 038°17'2 6.3 23.6
2014-Dec-09 19:15N 26°11' W 038°15'0 0.0 23.6
2014-Dec-09 19:00N 26°11' W 038°15'0 0.0 23.6
2014-Dec-09 18:00N 26°11' W 038°15'0 0.0 23.7
2014-Dec-09 17:45N 26°11' W 038°15'2 1.6 23.7
2014-Dec-09 16:15N 26°13' W 038°13'0 0.0 23.8
2014-Dec-09 16:00N 26°13' W 038°13'0 0.0 23.8
2014-Dec-09 14:30N 26°13' W 038°13'1 0.3 23.9
2014-Dec-09 12:30N 26°13' W 038°14'2 2.1 24.0
2014-Dec-09 11:45N 26°13' W 038°12'0 0.0 24.0
2014-Dec-09 09:30N 26°13' W 038°12'0 0.1 24.0
2014-Dec-09 08:15N 26°14' W 038°12'0 0.0 24.0
2014-Dec-09 07:45N 26°14' W 038°12'1 0.7 24.0
2014-Dec-09 06:45N 26°14' W 038°12'2 8.2 24.0
2014-Dec-09 06:30N 26°15' W 038°10'0 0.0 24.0
2014-Dec-09 04:45N 26°15' W 038°10'0 0.0 24.0
2014-Dec-09 00:00N 26°15' W 038°10'1 0.5 24.1
2014-Dec-08 21:30N 26°16' W 038°09'0 0.0 24.1
2014-Dec-08 21:15N 26°16' W 038°09'2 1.6 24.1
2014-Dec-08 19:45N 26°15' W 038°06'0 0.0 24.3
2014-Dec-08 19:30N 26°15' W 038°06'0 0.0 24.3
2014-Dec-08 18:15N 26°15' W 038°06'0 0.0 24.3
2014-Dec-08 18:00N 26°15' W 038°06'   24.3
Track history (hours):
 
Tides and Currents Weather Stations Pressure Air Temp Water Temp Dewpoint Dewpoint Depression Visibility Wind Speed Wind Dir Waves Ship Positions

Drifting buoy 41997

Last reported at 2014-Dec-18 18:00 UTC. Time now 2014-Dec-18 19:33 UTC.
Position N 26°13' W 037°25'.

Water temperature 23.8 ° C

Date/timePositionNaut miles runAvg speedWind from/ knotsBaromVisibWave heightAir tempDewpointWater temp
2014-Dec-18 18:00N 26°13' W 037°25'0 0.0 23.8
2014-Dec-18 17:45N 26°13' W 037°25'1 0.7 23.8
2014-Dec-18 16:15N 26°12' W 037°25'0 0.0 23.8
2014-Dec-18 16:00N 26°12' W 037°25'0 0.0 23.8
2014-Dec-18 13:45N 26°12' W 037°25'0 0.0 23.8
2014-Dec-18 13:30N 26°12' W 037°25'0 0.0 23.8
2014-Dec-18 12:45N 26°12' W 037°25'0 0.4 23.8
2014-Dec-18 12:00N 26°12' W 037°25'0 0.0 23.8
2014-Dec-18 11:45N 26°12' W 037°25'0 0.1 23.8
2014-Dec-18 09:00N 26°12' W 037°25'0 1.0 23.8
2014-Dec-18 08:45N 26°12' W 037°25'0 0.5 23.8
2014-Dec-18 08:15N 26°12' W 037°25'0 0.0 23.8
2014-Dec-18 07:30N 26°12' W 037°25'0 0.0 23.8
2014-Dec-18 07:00N 26°12' W 037°25'1 1.1 23.8
2014-Dec-18 06:30N 26°12' W 037°25'1 0.7 23.8
2014-Dec-18 04:45N 26°12' W 037°27'0 0.0 23.8
2014-Dec-18 03:00N 26°12' W 037°27'0 0.0 23.8
2014-Dec-18 00:15N 26°12' W 037°27'0 0.0 23.8
2014-Dec-17 23:30N 26°12' W 037°27'0 0.0 23.8
2014-Dec-17 21:45N 26°12' W 037°27'0 0.0 23.8
2014-Dec-17 21:30N 26°12' W 037°27'2 2.0 23.8
2014-Dec-17 20:45N 26°11' W 037°28'0 0.0 23.8
2014-Dec-17 20:00N 26°11' W 037°28'0 0.0 23.8
2014-Dec-17 19:45N 26°11' W 037°28'0 0.6 23.8
2014-Dec-17 19:00N 26°11' W 037°28'0 0.0 23.8
2014-Dec-17 18:15N 26°11' W 037°28'0 1.6 23.8
2014-Dec-17 18:00N 26°11' W 037°29'0 0.0 23.8
2014-Dec-17 16:15N 26°11' W 037°29'1 0.8 23.9
2014-Dec-17 14:45N 26°10' W 037°30'0 0.0 23.9
2014-Dec-17 14:30N 26°10' W 037°30'0 0.0 23.9
2014-Dec-17 13:15N 26°10' W 037°30'0 0.3 23.9
2014-Dec-17 12:15N 26°10' W 037°30'0 0.0 23.9
2014-Dec-17 11:30N 26°10' W 037°30'0 0.0 23.9
2014-Dec-17 10:30N 26°10' W 037°30'0 0.2 23.9
2014-Dec-17 09:30N 26°10' W 037°30'0 0.7 23.9
2014-Dec-17 09:15N 26°10' W 037°30'0 0.2 23.8
2014-Dec-17 08:30N 26°10' W 037°30'0 0.0 23.8
2014-Dec-17 08:15N 26°10' W 037°30'0 0.0 23.8
2014-Dec-17 08:00N 26°10' W 037°30'0 0.0 23.8
2014-Dec-17 07:45N 26°10' W 037°30'2 1.7 23.8
2014-Dec-17 06:45N 26°10' W 037°32'0 0.0 23.8
2014-Dec-17 05:00N 26°10' W 037°32'0 0.0 23.8
2014-Dec-17 00:00N 26°10' W 037°32'0 0.0 23.9
2014-Dec-16 23:45N 26°10' W 037°32'1 1.4 23.9
2014-Dec-16 23:00N 26°10' W 037°33'0 0.0 23.9
2014-Dec-16 22:15N 26°10' W 037°33'0 0.0 23.9
2014-Dec-16 22:00N 26°10' W 037°33'0 0.0 23.9
2014-Dec-16 20:30N 26°10' W 037°33'1 0.3 23.9
2014-Dec-16 18:15N 26°09' W 037°34'3 0.2 23.9
2014-Dec-15 23:30N 26°07' W 037°36'0 0.0 23.9
2014-Dec-15 23:15N 26°07' W 037°36'1 0.7 23.9
2014-Dec-15 22:30N 26°07' W 037°37'1 0.4 23.9
2014-Dec-15 20:15N 26°06' W 037°37'0 0.0 23.9
2014-Dec-15 20:00N 26°06' W 037°37'0 0.0 23.9
2014-Dec-15 18:30N 26°06' W 037°37'0 0.0 23.9
2014-Dec-15 18:15N 26°06' W 037°37'1 0.4 23.9
2014-Dec-15 16:45N 26°06' W 037°38'0 0.0 23.9
2014-Dec-15 16:30N 26°06' W 037°38'1 0.4 23.9
2014-Dec-15 15:00N 26°06' W 037°38'1 0.4 24.0
2014-Dec-15 12:15N 26°06' W 037°40'1 0.6 23.9
2014-Dec-15 11:15N 26°05' W 037°40'1 0.2 23.9
2014-Dec-15 08:45N 26°05' W 037°40'1 2.2 23.9
2014-Dec-15 08:30N 26°05' W 037°40'1 0.4 23.9
2014-Dec-15 07:15N 26°05' W 037°40'1 2.4 23.9
2014-Dec-15 07:00N 26°06' W 037°40'0 0.0 23.9
2014-Dec-15 05:15N 26°06' W 037°40'1 0.8 23.9
2014-Dec-15 03:45N 26°07' W 037°39'0 0.0 23.9
2014-Dec-15 03:30N 26°07' W 037°39'0 0.0 23.9
2014-Dec-15 00:30N 26°07' W 037°39'2 2.3 23.9
2014-Dec-14 23:45N 26°07' W 037°41'1 0.7 23.9
2014-Dec-14 23:00N 26°07' W 037°40'0 0.0 23.9
2014-Dec-14 22:45N 26°07' W 037°40'0 0.0 23.9
2014-Dec-14 21:30N 26°07' W 037°40'3 3.2 23.9
2014-Dec-14 20:30N 26°07' W 037°44'312.9 23.9
2014-Dec-14 20:15N 26°07' W 037°40'1 2.2 23.9
2014-Dec-14 20:00N 26°07' W 037°41'310.8 23.9
2014-Dec-14 19:45N 26°07' W 037°44'3 2.8 23.9
2014-Dec-14 18:45N 26°08' W 037°41'0 0.0 23.9
2014-Dec-14 18:30N 26°08' W 037°41'1 0.4 23.9
2014-Dec-14 17:00N 26°08' W 037°40'0 0.0 23.8
2014-Dec-14 16:45N 26°08' W 037°40'1 0.4 23.8
2014-Dec-14 15:15N 26°08' W 037°41'0 0.0 23.7
2014-Dec-14 15:00N 26°08' W 037°41'2 0.7 23.7
2014-Dec-14 12:30N 26°06' W 037°41'2 2.5 23.7
2014-Dec-14 11:45N 26°04' W 037°41'0 0.0 23.8
2014-Dec-14 11:30N 26°04' W 037°41'0 0.0 23.9
2014-Dec-14 09:15N 26°04' W 037°41'0 0.0 24.0
2014-Dec-14 09:00N 26°04' W 037°41'1 0.9 24.1
2014-Dec-14 07:30N 26°03' W 037°42'0 0.0 24.2
2014-Dec-14 07:15N 26°03' W 037°42'2 0.9 24.2
2014-Dec-14 05:30N 26°02' W 037°43'1 0.9 24.2
2014-Dec-14 04:00N 26°01' W 037°43'0 0.0 24.3
2014-Dec-14 03:45N 26°01' W 037°43'2 0.6 24.3
2014-Dec-14 01:00N 25°59' W 037°43'0 0.0 24.3
2014-Dec-14 00:00N 25°59' W 037°43'0 0.0 24.3
2014-Dec-13 23:15N 25°59' W 037°43'7 0.3 24.3
2014-Dec-12 22:45N 25°58' W 037°50'2 0.6 24.3
2014-Dec-12 19:00N 25°59' W 037°53'0 0.0 24.5
2014-Dec-12 17:45N 25°59' W 037°53'5 0.4 24.6
2014-Dec-12 04:15N 25°59' W 037°58'2 6.4 24.3
2014-Dec-12 04:00N 25°59' W 037°60'0 0.0 24.3
2014-Dec-12 00:00N 25°59' W 037°60'0 0.0 24.3
2014-Dec-11 23:45N 25°59' W 037°60'1 1.5 24.3
2014-Dec-11 23:15N 25°60' W 038°01'0 0.0 24.3
2014-Dec-11 23:00N 25°60' W 038°01'0 0.0 24.3
2014-Dec-11 22:15N 25°60' W 038°01'0 0.0 24.3
2014-Dec-11 21:30N 25°60' W 038°01'0 0.0 24.3
2014-Dec-11 21:15N 25°60' W 038°01'1 0.6 24.3
2014-Dec-11 19:45N 26°00' W 038°01'0 0.0 24.4
2014-Dec-11 19:15N 26°00' W 038°01'0 0.0 24.4
2014-Dec-11 19:00N 26°00' W 038°01'2 2.9 24.4
2014-Dec-11 18:15N 26°00' W 038°04'0 0.0 24.5
2014-Dec-11 17:30N 26°00' W 038°04'0 0.0 24.5
2014-Dec-11 15:45N 26°00' W 038°04'2 0.6 24.5
2014-Dec-11 12:45N 26°01' W 038°06'0 0.0 24.3
2014-Dec-11 12:30N 26°01' W 038°06'2 3.1 24.3
2014-Dec-11 12:00N 26°01' W 038°08'0 0.0 24.3
2014-Dec-11 11:45N 26°01' W 038°08'0 0.0 24.3
2014-Dec-11 11:00N 26°01' W 038°08'0 0.0 24.3
2014-Dec-11 09:00N 26°01' W 038°08'1 4.1 24.3
2014-Dec-11 08:45N 26°01' W 038°09'0 0.0 24.3
2014-Dec-11 08:00N 26°01' W 038°09'1 2.4 24.3
2014-Dec-11 07:45N 26°01' W 038°09'0 0.0 24.3
2014-Dec-11 07:30N 26°01' W 038°09'0 0.0 24.3
2014-Dec-11 07:00N 26°01' W 038°09'1 1.7 24.3
2014-Dec-11 06:15N 26°01' W 038°11'0 0.0 24.3
2014-Dec-11 06:00N 26°01' W 038°11'0 0.1 24.3
2014-Dec-11 04:30N 26°01' W 038°11'2 7.6 24.3
2014-Dec-11 04:15N 26°00' W 038°13'0 0.0 24.3
2014-Dec-11 00:15N 26°00' W 038°13'1 1.6 24.3
2014-Dec-10 23:30N 26°01' W 038°13'0 0.0 24.3
2014-Dec-10 22:30N 26°01' W 038°13'0 0.0 24.3
2014-Dec-10 22:00N 26°01' W 038°13'0 0.0 24.3
2014-Dec-10 21:45N 26°01' W 038°13'0 0.0 24.3
2014-Dec-10 20:15N 26°01' W 038°13'0 0.0 24.3
2014-Dec-10 19:30N 26°01' W 038°13'0 0.0 24.3
2014-Dec-10 19:15N 26°01' W 038°13'2 3.9 24.3
2014-Dec-10 18:45N 26°03' W 038°14'0 0.0 24.3
2014-Dec-10 17:45N 26°03' W 038°14'0 0.0 24.3
2014-Dec-10 16:00N 26°03' W 038°14'0 0.0 24.3
2014-Dec-10 15:45N 26°03' W 038°14'3 0.8 24.3
2014-Dec-10 12:15N 26°06' W 038°16'0 0.0 24.3
2014-Dec-10 11:30N 26°06' W 038°16'1 0.3 24.2
2014-Dec-10 09:00N 26°06' W 038°16'0 0.0 24.2
2014-Dec-10 08:00N 26°06' W 038°16'1 2.1 24.1
2014-Dec-10 07:45N 26°07' W 038°17'1 0.8 24.1
2014-Dec-10 06:30N 26°08' W 038°17'0 0.0 24.0
2014-Dec-10 04:45N 26°08' W 038°17'0 0.0 23.9
2014-Dec-10 04:30N 26°08' W 038°17'1 0.3 23.9
2014-Dec-10 00:00N 26°09' W 038°17'1 2.2 23.6
2014-Dec-09 23:45N 26°09' W 038°18'2 2.1 23.6
2014-Dec-09 23:00N 26°10' W 038°17'0 0.0 23.6
2014-Dec-09 20:45N 26°10' W 038°17'0 0.0 23.6
2014-Dec-09 19:30N 26°10' W 038°17'2 6.3 23.6
2014-Dec-09 19:15N 26°11' W 038°15'0 0.0 23.6
2014-Dec-09 19:00N 26°11' W 038°15'0 0.0 23.6
2014-Dec-09 18:00N 26°11' W 038°15'0 0.0 23.7
2014-Dec-09 17:45N 26°11' W 038°15'2 1.6 23.7
2014-Dec-09 16:15N 26°13' W 038°13'0 0.0 23.8
2014-Dec-09 16:00N 26°13' W 038°13'0 0.0 23.8
2014-Dec-09 14:30N 26°13' W 038°13'1 0.3 23.9
2014-Dec-09 12:30N 26°13' W 038°14'2 2.1 24.0
2014-Dec-09 11:45N 26°13' W 038°12'0 0.0 24.0
2014-Dec-09 09:30N 26°13' W 038°12'0 0.1 24.0
2014-Dec-09 08:15N 26°14' W 038°12'0 0.0 24.0
2014-Dec-09 07:45N 26°14' W 038°12'1 0.7 24.0
2014-Dec-09 06:45N 26°14' W 038°12'2 8.2 24.0
2014-Dec-09 06:30N 26°15' W 038°10'0 0.0 24.0
2014-Dec-09 04:45N 26°15' W 038°10'0 0.0 24.0
2014-Dec-09 00:00N 26°15' W 038°10'1 0.5 24.1
2014-Dec-08 21:30N 26°16' W 038°09'0 0.0 24.1
2014-Dec-08 21:15N 26°16' W 038°09'2 1.6 24.1
2014-Dec-08 19:45N 26°15' W 038°06'0 0.0 24.3
2014-Dec-08 19:30N 26°15' W 038°06'0 0.0 24.3
2014-Dec-08 18:15N 26°15' W 038°06'0 0.0 24.3
2014-Dec-08 18:00N 26°15' W 038°06'   24.3

Dump ship's entire track history